createdAt,value
2023-03-17T00:01:57.995Z,3.55
2023-03-17T00:25:54.257Z,4.32
2023-03-17T00:28:23.507Z,4.57
2023-03-17T00:30:54.828Z,3.90
2023-03-17T00:33:27.940Z,4.63
2023-03-17T00:35:57.000Z,4.40
2023-03-17T00:38:24.601Z,4.25
2023-03-17T00:40:51.861Z,4.10
2023-03-17T00:43:18.619Z,3.95
2023-03-17T00:59:20.829Z,3.55
2023-03-17T01:01:48.132Z,3.47
2023-03-17T01:23:39.860Z,3.40
2023-03-17T01:26:06.691Z,3.17
2023-03-17T01:28:34.082Z,3.72
2023-03-17T01:31:00.550Z,3.08
2023-03-17T01:33:27.131Z,3.28
2023-03-17T01:35:53.651Z,3.13
2023-03-17T01:38:20.171Z,3.40
2023-03-17T01:40:49.955Z,3.03
2023-03-17T01:43:21.462Z,3.22
2023-03-17T01:46:25.322Z,2.97
2023-03-17T01:49:09.404Z,3.45
2023-03-17T01:52:01.069Z,3.13
2023-03-17T01:54:56.674Z,3.30
2023-03-17T01:57:28.639Z,3.70
2023-03-17T02:00:19.622Z,3.42
2023-03-17T02:02:48.886Z,2.88
2023-03-17T02:24:07.844Z,3.17
2023-03-17T02:26:35.379Z,2.95
2023-03-17T02:29:02.363Z,2.50
2023-03-17T02:31:29.063Z,3.28
2023-03-17T02:33:56.210Z,2.50
2023-03-17T02:36:22.676Z,3.10
2023-03-17T02:38:49.607Z,3.88
2023-03-17T02:41:16.908Z,2.97
2023-03-17T02:43:43.428Z,2.97
2023-03-17T02:46:09.965Z,2.90
2023-03-17T02:48:37.481Z,2.85
2023-03-17T02:51:04.521Z,3.17
2023-03-17T02:53:31.470Z,2.65
2023-03-17T02:55:58.283Z,3.00
2023-03-17T02:58:24.777Z,3.40
2023-03-17T03:00:51.663Z,2.83
2023-03-17T03:03:18.157Z,2.85
2023-03-17T03:24:32.437Z,3.42
2023-03-17T03:26:58.896Z,3.47
2023-03-17T03:29:25.758Z,3.13
2023-03-17T03:31:52.190Z,3.20
2023-03-17T03:34:19.011Z,2.92
2023-03-17T03:36:45.454Z,3.08
2023-03-17T03:39:14.343Z,3.38
2023-03-17T03:41:41.224Z,3.05
